sensor_id;sensor_type;location;lat;lon;timestamp;pressure;altitude;pressure_sealevel;temperature
19102;BMP280;9683;49.028;12.064;2023-01-10T00:00:21;96639.53;;;6.39
19102;BMP280;9683;49.028;12.064;2023-01-10T00:02:47;96645.81;;;6.38
19102;BMP280;9683;49.028;12.064;2023-01-10T00:05:14;96639.53;;;6.33
19102;BMP280;9683;49.028;12.064;2023-01-10T00:07:41;96649.09;;;6.34
19102;BMP280;9683;49.028;12.064;2023-01-10T00:10:09;96674.06;;;6.31
19102;BMP280;9683;49.028;12.064;2023-01-10T00:12:36;96685.25;;;6.33
19102;BMP280;9683;49.028;12.064;2023-01-10T00:15:21;96672.47;;;6.30
19102;BMP280;9683;49.028;12.064;2023-01-10T00:17:48;96671.22;;;6.33
19102;BMP280;9683;49.028;12.064;2023-01-10T00:20:15;96683.03;;;6.30
19102;BMP280;9683;49.028;12.064;2023-01-10T00:22:42;96685.69;;;6.24
19102;BMP280;9683;49.028;12.064;2023-01-10T00:25:09;96691.19;;;6.22
19102;BMP280;9683;49.028;12.064;2023-01-10T00:27:36;96693.44;;;6.19
19102;BMP280;9683;49.028;12.064;2023-01-10T00:30:04;96692.00;;;6.23
19102;BMP280;9683;49.028;12.064;2023-01-10T00:32:40;96698.69;;;6.25
19102;BMP280;9683;49.028;12.064;2023-01-10T00:35:07;96711.28;;;6.30
19102;BMP280;9683;49.028;12.064;2023-01-10T00:37:35;96709.84;;;6.27
19102;BMP280;9683;49.028;12.064;2023-01-10T00:40:03;96716.75;;;6.28
19102;BMP280;9683;49.028;12.064;2023-01-10T00:42:32;96717.13;;;6.32
19102;BMP280;9683;49.028;12.064;2023-01-10T00:45:16;96731.38;;;6.31
19102;BMP280;9683;49.028;12.064;2023-01-10T00:47:45;96727.31;;;6.35
19102;BMP280;9683;49.028;12.064;2023-01-10T00:50:12;96737.63;;;6.36
19102;BMP280;9683;49.028;12.064;2023-01-10T00:52:38;96733.94;;;6.44
19102;BMP280;9683;49.028;12.064;2023-01-10T00:55:06;96741.66;;;6.52
19102;BMP280;9683;49.028;12.064;2023-01-10T00:57:33;96749.16;;;6.55
19102;BMP280;9683;49.028;12.064;2023-01-10T00:59:59;96766.44;;;6.51
19102;BMP280;9683;49.028;12.064;2023-01-10T01:02:26;96763.41;;;6.48
19102;BMP280;9683;49.028;12.064;2023-01-10T01:04:54;96772.78;;;6.43
19102;BMP280;9683;49.028;12.064;2023-01-10T01:07:20;96771.16;;;6.42
19102;BMP280;9683;49.028;12.064;2023-01-10T01:09:48;96787.19;;;6.41
19102;BMP280;9683;49.028;12.064;2023-01-10T01:12:32;96787.81;;;6.36
19102;BMP280;9683;49.028;12.064;2023-01-10T01:14:58;96786.38;;;6.40
19102;BMP280;9683;49.028;12.064;2023-01-10T01:17:25;96799.59;;;6.40
19102;BMP280;9683;49.028;12.064;2023-01-10T01:19:51;96798.19;;;6.38
19102;BMP280;9683;49.028;12.064;2023-01-10T01:22:19;96808.38;;;6.34
19102;BMP280;9683;49.028;12.064;2023-01-10T01:24:46;96810.59;;;6.37
19102;BMP280;9683;49.028;12.064;2023-01-10T01:27:13;96809.56;;;6.38
19102;BMP280;9683;49.028;12.064;2023-01-10T01:29:39;96810.78;;;6.42
19102;BMP280;9683;49.028;12.064;2023-01-10T01:32:06;96817.47;;;6.45
19102;BMP280;9683;49.028;12.064;2023-01-10T01:34:32;96816.25;;;6.48
19102;BMP280;9683;49.028;12.064;2023-01-10T01:36:59;96820.09;;;6.52
19102;BMP280;9683;49.028;12.064;2023-01-10T01:39:27;96826.38;;;6.57
19102;BMP280;9683;49.028;12.064;2023-01-10T01:41:54;96832.84;;;6.61
19102;BMP280;9683;49.028;12.064;2023-01-10T01:44:29;96825.94;;;6.67
19102;BMP280;9683;49.028;12.064;2023-01-10T01:47:01;96834.06;;;6.72
19102;BMP280;9683;49.028;12.064;2023-01-10T01:49:31;96826.31;;;6.70
19102;BMP280;9683;49.028;12.064;2023-01-10T01:52:01;96840.97;;;6.73
19102;BMP280;9683;49.028;12.064;2023-01-10T01:54:31;96840.97;;;6.73
19102;BMP280;9683;49.028;12.064;2023-01-10T01:57:01;96839.31;;;6.78
19102;BMP280;9683;49.028;12.064;2023-01-10T01:59:32;96851.31;;;6.74
19102;BMP280;9683;49.028;12.064;2023-01-10T02:02:04;96854.78;;;6.75
19102;BMP280;9683;49.028;12.064;2023-01-10T02:04:37;96847.06;;;6.73
19102;BMP280;9683;49.028;12.064;2023-01-10T02:07:07;96853.13;;;6.74
19102;BMP280;9683;49.028;12.064;2023-01-10T02:09:39;96862.28;;;6.78
19102;BMP280;9683;49.028;12.064;2023-01-10T02:12:07;96860.44;;;6.78
19102;BMP280;9683;49.028;12.064;2023-01-10T02:14:36;96862.06;;;6.79
19102;BMP280;9683;49.028;12.064;2023-01-10T02:17:04;96862.28;;;6.78
19102;BMP280;9683;49.028;12.064;2023-01-10T02:19:41;96860.84;;;6.82
19102;BMP280;9683;49.028;12.064;2023-01-10T02:22:41;96871.00;;;6.85
19102;BMP280;9683;49.028;12.064;2023-01-10T02:34:32;96892.16;;;6.85
19102;BMP280;9683;49.028;12.064;2023-01-10T02:37:07;96885.63;;;6.87
19102;BMP280;9683;49.028;12.064;2023-01-10T02:39:45;96889.91;;;6.88
19102;BMP280;9683;49.028;12.064;2023-01-10T02:42:19;96895.00;;;6.90
19102;BMP280;9683;49.028;12.064;2023-01-10T02:44:51;96890.50;;;6.90
19102;BMP280;9683;49.028;12.064;2023-01-10T02:47:19;96899.28;;;6.84
19102;BMP280;9683;49.028;12.064;2023-01-10T02:49:48;96901.53;;;6.81
19102;BMP280;9683;49.028;12.064;2023-01-10T02:52:18;96912.72;;;6.76
19102;BMP280;9683;49.028;12.064;2023-01-10T02:54:47;96915.13;;;6.78
19102;BMP280;9683;49.028;12.064;2023-01-10T02:57:27;96917.78;;;6.78
19102;BMP280;9683;49.028;12.064;2023-01-10T03:00:28;96928.56;;;6.76
19102;BMP280;9683;49.028;12.064;2023-01-10T03:03:10;96936.94;;;6.73
19102;BMP280;9683;49.028;12.064;2023-01-10T03:05:49;96932.84;;;6.71
19102;BMP280;9683;49.028;12.064;2023-01-10T03:08:23;96947.06;;;6.70
19102;BMP280;9683;49.028;12.064;2023-01-10T03:10:56;96938.31;;;6.69
19102;BMP280;9683;49.028;12.064;2023-01-10T03:13:26;96941.19;;;6.68
19102;BMP280;9683;49.028;12.064;2023-01-10T03:15:55;96945.66;;;6.67
19102;BMP280;9683;49.028;12.064;2023-01-10T03:18:26;96949.31;;;6.66
19102;BMP280;9683;49.028;12.064;2023-01-10T03:20:55;96945.03;;;6.65
19102;BMP280;9683;49.028;12.064;2023-01-10T03:23:23;96951.16;;;6.59
19102;BMP280;9683;49.028;12.064;2023-01-10T03:25:51;96957.66;;;6.63
19102;BMP280;9683;49.028;12.064;2023-01-10T03:28:25;96960.13;;;6.65
19102;BMP280;9683;49.028;12.064;2023-01-10T03:30:57;96965.56;;;6.70
19102;BMP280;9683;49.028;12.064;2023-01-10T03:33:27;96964.38;;;6.72
19102;BMP280;9683;49.028;12.064;2023-01-10T03:36:03;96973.72;;;6.68
19102;BMP280;9683;49.028;12.064;2023-01-10T03:38:37;96979.81;;;6.69
19102;BMP280;9683;49.028;12.064;2023-01-10T03:41:12;96988.16;;;6.72
19102;BMP280;9683;49.028;12.064;2023-01-10T03:43:44;96994.88;;;6.68
19102;BMP280;9683;49.028;12.064;2023-01-10T03:46:35;97000.34;;;6.67
19102;BMP280;9683;49.028;12.064;2023-01-10T03:49:04;97000.75;;;6.70
19102;BMP280;9683;49.028;12.064;2023-01-10T03:51:34;97004.00;;;6.79
19102;BMP280;9683;49.028;12.064;2023-01-10T03:54:02;97010.50;;;6.83
19102;BMP280;9683;49.028;12.064;2023-01-10T03:56:29;97021.88;;;6.83
19102;BMP280;9683;49.028;12.064;2023-01-10T03:58:56;97020.25;;;6.82
19102;BMP280;9683;49.028;12.064;2023-01-10T04:01:23;97029.41;;;6.86
19102;BMP280;9683;49.028;12.064;2023-01-10T04:03:50;97042.41;;;6.88
19102;BMP280;9683;49.028;12.064;2023-01-10T04:06:16;97034.28;;;6.89
19102;BMP280;9683;49.028;12.064;2023-01-10T04:08:45;97037.13;;;6.95
19102;BMP280;9683;49.028;12.064;2023-01-10T04:11:12;97042.00;;;6.98
19102;BMP280;9683;49.028;12.064;2023-01-10T04:13:38;97053.81;;;7.02
19102;BMP280;9683;49.028;12.064;2023-01-10T04:16:07;97049.09;;;7.04
19102;BMP280;9683;49.028;12.064;2023-01-10T04:18:33;97054.19;;;7.05
19102;BMP280;9683;49.028;12.064;2023-01-10T04:21:00;97056.66;;;7.07
19102;BMP280;9683;49.028;12.064;2023-01-10T04:23:27;97064.78;;;7.05
19102;BMP280;9683;49.028;12.064;2023-01-10T04:25:54;97067.63;;;7.04
19102;BMP280;9683;49.028;12.064;2023-01-10T04:28:21;97075.34;;;6.99
19102;BMP280;9683;49.028;12.064;2023-01-10T04:30:48;97070.47;;;6.96
19102;BMP280;9683;49.028;12.064;2023-01-10T04:33:14;97076.59;;;6.96
19102;BMP280;9683;49.028;12.064;2023-01-10T04:35:46;97079.03;;;6.98
19102;BMP280;9683;49.028;12.064;2023-01-10T04:38:13;97080.47;;;6.94
19102;BMP280;9683;49.028;12.064;2023-01-10T04:40:40;97092.63;;;6.95
19102;BMP280;9683;49.028;12.064;2023-01-10T04:43:08;97101.63;;;6.94
19102;BMP280;9683;49.028;12.064;2023-01-10T04:45:34;97101.22;;;6.90
19102;BMP280;9683;49.028;12.064;2023-01-10T04:48:01;97105.88;;;6.81
19102;BMP280;9683;49.028;12.064;2023-01-10T04:50:28;97108.50;;;6.75
19102;BMP280;9683;49.028;12.064;2023-01-10T04:52:54;97107.69;;;6.74
19102;BMP280;9683;49.028;12.064;2023-01-10T04:55:21;97114.78;;;6.74
19102;BMP280;9683;49.028;12.064;2023-01-10T04:57:47;97115.41;;;6.76
19102;BMP280;9683;49.028;12.064;2023-01-10T05:00:16;97119.50;;;6.85
19102;BMP280;9683;49.028;12.064;2023-01-10T05:02:43;97133.53;;;6.85
19102;BMP280;9683;49.028;12.064;2023-01-10T05:05:09;97138.59;;;6.87
19102;BMP280;9683;49.028;12.064;2023-01-10T05:07:36;97136.19;;;6.85
19102;BMP280;9683;49.028;12.064;2023-01-10T05:10:03;97142.47;;;6.84
19102;BMP280;9683;49.028;12.064;2023-01-10T05:12:30;97134.13;;;6.74
19102;BMP280;9683;49.028;12.064;2023-01-10T05:14:57;97146.94;;;6.77
19102;BMP280;9683;49.028;12.064;2023-01-10T05:17:25;97155.06;;;6.82
19102;BMP280;9683;49.028;12.064;2023-01-10T05:19:51;97161.78;;;6.78
19102;BMP280;9683;49.028;12.064;2023-01-10T05:22:18;97169.53;;;6.80
19102;BMP280;9683;49.028;12.064;2023-01-10T05:24:44;97165.88;;;6.81
19102;BMP280;9683;49.028;12.064;2023-01-10T05:27:11;97169.09;;;6.83
19102;BMP280;9683;49.028;12.064;2023-01-10T05:29:38;97177.44;;;6.80
19102;BMP280;9683;49.028;12.064;2023-01-10T05:32:04;97182.13;;;6.84
19102;BMP280;9683;49.028;12.064;2023-01-10T05:34:34;97197.41;;;6.89
19102;BMP280;9683;49.028;12.064;2023-01-10T05:37:03;97193.94;;;6.88
19102;BMP280;9683;49.028;12.064;2023-01-10T05:39:30;97202.28;;;6.85
19102;BMP280;9683;49.028;12.064;2023-01-10T05:41:56;97205.94;;;6.84
19102;BMP280;9683;49.028;12.064;2023-01-10T05:44:23;97202.06;;;6.80
19102;BMP280;9683;49.028;12.064;2023-01-10T05:46:50;97210.19;;;6.79
19102;BMP280;9683;49.028;12.064;2023-01-10T05:49:16;97206.53;;;6.80
19102;BMP280;9683;49.028;12.064;2023-01-10T05:51:44;97208.56;;;6.84
19102;BMP280;9683;49.028;12.064;2023-01-10T05:54:11;97215.28;;;6.80
19102;BMP280;9683;49.028;12.064;2023-01-10T05:56:37;97209.16;;;6.73
19102;BMP280;9683;49.028;12.064;2023-01-10T05:59:04;97220.75;;;6.72
19102;BMP280;9683;49.028;12.064;2023-01-10T06:01:31;97224.81;;;6.68
19102;BMP280;9683;49.028;12.064;2023-01-10T06:03:58;97234.78;;;6.73
19102;BMP280;9683;49.028;12.064;2023-01-10T06:06:25;97248.19;;;6.78
19102;BMP280;9683;49.028;12.064;2023-01-10T06:08:53;97251.28;;;6.81
19102;BMP280;9683;49.028;12.064;2023-01-10T06:11:20;97252.06;;;6.82
19102;BMP280;9683;49.028;12.064;2023-01-10T06:13:53;97266.91;;;6.83
19102;BMP280;9683;49.028;12.064;2023-01-10T06:16:20;97267.75;;;6.83
19102;BMP280;9683;49.028;12.064;2023-01-10T06:18:46;97275.06;;;6.81
19102;BMP280;9683;49.028;12.064;2023-01-10T06:21:13;97271.78;;;6.79
19102;BMP280;9683;49.028;12.064;2023-01-10T06:23:40;97288.25;;;6.75
19102;BMP280;9683;49.028;12.064;2023-01-10T06:26:08;97294.34;;;6.75
19102;BMP280;9683;49.028;12.064;2023-01-10T06:28:34;97298.41;;;6.78
19102;BMP280;9683;49.028;12.064;2023-01-10T06:31:01;97301.06;;;6.78
19102;BMP280;9683;49.028;12.064;2023-01-10T06:33:27;97297.22;;;6.80
19102;BMP280;9683;49.028;12.064;2023-01-10T06:35:54;97309.22;;;6.83
19102;BMP280;9683;49.028;12.064;2023-01-10T06:38:21;97307.38;;;6.77
19102;BMP280;9683;49.028;12.064;2023-01-10T06:40:47;97313.03;;;6.74
19102;BMP280;9683;49.028;12.064;2023-01-10T06:43:15;97320.59;;;6.77
19102;BMP280;9683;49.028;12.064;2023-01-10T06:45:42;97326.25;;;6.74
19102;BMP280;9683;49.028;12.064;2023-01-10T06:48:09;97338.06;;;6.71
19102;BMP280;9683;49.028;12.064;2023-01-10T06:50:35;97348.78;;;6.63
19102;BMP280;9683;49.028;12.064;2023-01-10T06:53:03;97351.19;;;6.58
19102;BMP280;9683;49.028;12.064;2023-01-10T06:55:30;97356.81;;;6.49
19102;BMP280;9683;49.028;12.064;2023-01-10T06:57:58;97373.25;;;6.44
19102;BMP280;9683;49.028;12.064;2023-01-10T07:00:27;97364.72;;;6.42
19102;BMP280;9683;49.028;12.064;2023-01-10T07:02:58;97374.88;;;6.45
19102;BMP280;9683;49.028;12.064;2023-01-10T07:05:25;97377.53;;;6.45
19102;BMP280;9683;49.028;12.064;2023-01-10T07:07:53;97386.47;;;6.44
19102;BMP280;9683;49.028;12.064;2023-01-10T07:10:19;97395.22;;;6.44
19102;BMP280;9683;49.028;12.064;2023-01-10T07:12:46;97400.88;;;6.41
19102;BMP280;9683;49.028;12.064;2023-01-10T07:15:13;97400.06;;;6.41
19102;BMP280;9683;49.028;12.064;2023-01-10T07:17:41;97406.41;;;6.47
19102;BMP280;9683;49.028;12.064;2023-01-10T07:20:09;97411.56;;;6.55
19102;BMP280;9683;49.028;12.064;2023-01-10T07:22:35;97427.81;;;6.58
19102;BMP280;9683;49.028;12.064;2023-01-10T07:25:03;97438.47;;;6.65
19102;BMP280;9683;49.028;12.064;2023-01-10T07:27:30;97442.94;;;6.64
19102;BMP280;9683;49.028;12.064;2023-01-10T07:29:56;97443.69;;;6.58
19102;BMP280;9683;49.028;12.064;2023-01-10T07:32:23;97454.84;;;6.54
19102;BMP280;9683;49.028;12.064;2023-01-10T07:34:51;97457.75;;;6.37
19102;BMP280;9683;49.028;12.064;2023-01-10T07:37:18;97463.22;;;6.36
19102;BMP280;9683;49.028;12.064;2023-01-10T07:39:44;97470.72;;;6.32
19102;BMP280;9683;49.028;12.064;2023-01-10T07:42:11;97469.41;;;6.22
19102;BMP280;9683;49.028;12.064;2023-01-10T07:44:38;97469.69;;;6.27
19102;BMP280;9683;49.028;12.064;2023-01-10T07:47:04;97474.81;;;6.35
19102;BMP280;9683;49.028;12.064;2023-01-10T07:49:31;97481.16;;;6.40
19102;BMP280;9683;49.028;12.064;2023-01-10T07:51:59;97485.28;;;6.50
19102;BMP280;9683;49.028;12.064;2023-01-10T07:54:25;97496.72;;;6.57
19102;BMP280;9683;49.028;12.064;2023-01-10T07:56:52;97507.69;;;6.54
19102;BMP280;9683;49.028;12.064;2023-01-10T07:59:18;97509.91;;;6.50
19102;BMP280;9683;49.028;12.064;2023-01-10T08:01:45;97509.91;;;6.50
19102;BMP280;9683;49.028;12.064;2023-01-10T08:04:13;97518.50;;;6.59
19102;BMP280;9683;49.028;12.064;2023-01-10T08:06:39;97515.03;;;6.58
19102;BMP280;9683;49.028;12.064;2023-01-10T08:09:07;97514.88;;;6.60
19102;BMP280;9683;49.028;12.064;2023-01-10T08:11:34;97514.28;;;6.64
19102;BMP280;9683;49.028;12.064;2023-01-10T08:14:00;97517.63;;;6.73
19102;BMP280;9683;49.028;12.064;2023-01-10T08:16:27;97524.91;;;6.71
19102;BMP280;9683;49.028;12.064;2023-01-10T08:18:54;97534.28;;;6.73
19102;BMP280;9683;49.028;12.064;2023-01-10T08:21:20;97545.31;;;6.77
19102;BMP280;9683;49.028;12.064;2023-01-10T08:23:47;97555.06;;;6.76
19102;BMP280;9683;49.028;12.064;2023-01-10T08:26:17;97560.66;;;6.67
19102;BMP280;9683;49.028;12.064;2023-01-10T08:28:44;97564.94;;;6.47
19102;BMP280;9683;49.028;12.064;2023-01-10T08:31:10;97565.13;;;6.45
19102;BMP280;9683;49.028;12.064;2023-01-10T08:33:37;97571.66;;;6.49
19102;BMP280;9683;49.028;12.064;2023-01-10T08:36:04;97574.56;;;6.54
19102;BMP280;9683;49.028;12.064;2023-01-10T08:38:31;97574.75;;;6.53
19102;BMP280;9683;49.028;12.064;2023-01-10T08:40:58;97578.47;;;6.58
19102;BMP280;9683;49.028;12.064;2023-01-10T08:43:26;97579.16;;;6.67
19102;BMP280;9683;49.028;12.064;2023-01-10T08:45:52;97589.34;;;6.70
19102;BMP280;9683;49.028;12.064;2023-01-10T08:48:19;97595.28;;;6.72
19102;BMP280;9683;49.028;12.064;2023-01-10T08:50:46;97604.22;;;6.71
19102;BMP280;9683;49.028;12.064;2023-01-10T08:53:12;97600.75;;;6.70
19102;BMP280;9683;49.028;12.064;2023-01-10T08:55:39;97602.78;;;6.68
19102;BMP280;9683;49.028;12.064;2023-01-10T08:58:06;97607.16;;;6.61
19102;BMP280;9683;49.028;12.064;2023-01-10T09:00:34;97625.47;;;6.63
19102;BMP280;9683;49.028;12.064;2023-01-10T09:03:00;97616.72;;;6.62
19102;BMP280;9683;49.028;12.064;2023-01-10T09:05:27;97604.59;;;6.68
19102;BMP280;9683;49.028;12.064;2023-01-10T09:07:57;97615.78;;;6.70
19102;BMP280;9683;49.028;12.064;2023-01-10T09:10:23;97625.88;;;6.60
19102;BMP280;9683;49.028;12.064;2023-01-10T09:12:50;97619.38;;;6.62
19102;BMP280;9683;49.028;12.064;2023-01-10T09:15:20;97628.19;;;6.69
19102;BMP280;9683;49.028;12.064;2023-01-10T09:17:48;97633.72;;;6.74
19102;BMP280;9683;49.028;12.064;2023-01-10T09:20:15;97629.91;;;6.77
19102;BMP280;9683;49.028;12.064;2023-01-10T09:22:41;97643.00;;;6.85
19102;BMP280;9683;49.028;12.064;2023-01-10T09:25:08;97653.47;;;6.78
19102;BMP280;9683;49.028;12.064;2023-01-10T09:27:35;97654.19;;;6.87
19102;BMP280;9683;49.028;12.064;2023-01-10T09:30:02;97651.78;;;6.92
19102;BMP280;9683;49.028;12.064;2023-01-10T09:32:30;97667.03;;;6.90
19102;BMP280;9683;49.028;12.064;2023-01-10T09:34:58;97663.75;;;6.88
19102;BMP280;9683;49.028;12.064;2023-01-10T09:37:24;97664.84;;;6.94
19102;BMP280;9683;49.028;12.064;2023-01-10T09:39:51;97659.97;;;6.97
19102;BMP280;9683;49.028;12.064;2023-01-10T09:42:38;97674.06;;;7.04
19102;BMP280;9683;49.028;12.064;2023-01-10T09:45:13;97681.00;;;7.05
19102;BMP280;9683;49.028;12.064;2023-01-10T09:47:47;97691.16;;;7.02
19102;BMP280;9683;49.028;12.064;2023-01-10T09:50:25;97689.50;;;6.79
19102;BMP280;9683;49.028;12.064;2023-01-10T09:52:55;97685.88;;;6.66
19102;BMP280;9683;49.028;12.064;2023-01-10T09:55:25;97682.63;;;6.64
19102;BMP280;9683;49.028;12.064;2023-01-10T09:57:54;97701.31;;;6.62
19102;BMP280;9683;49.028;12.064;2023-01-10T10:00:30;97709.69;;;6.66
19102;BMP280;9683;49.028;12.064;2023-01-10T10:02:59;97703.22;;;6.68
19102;BMP280;9683;49.028;12.064;2023-01-10T10:05:27;97700.63;;;6.75
19102;BMP280;9683;49.028;12.064;2023-01-10T10:07:56;97709.09;;;6.85
19102;BMP280;9683;49.028;12.064;2023-01-10T10:10:26;97711.75;;;6.85
19102;BMP280;9683;49.028;12.064;2023-01-10T10:13:06;97709.09;;;6.85
19102;BMP280;9683;49.028;12.064;2023-01-10T10:15:42;97704.91;;;6.76
19102;BMP280;9683;49.028;12.064;2023-01-10T10:18:21;97709.34;;;6.54
19102;BMP280;9683;49.028;12.064;2023-01-10T10:20:57;97711.09;;;6.47
19102;BMP280;9683;49.028;12.064;2023-01-10T10:23:41;97708.38;;;6.40
19102;BMP280;9683;49.028;12.064;2023-01-10T10:26:13;97708.56;;;6.24
19102;BMP280;9683;49.028;12.064;2023-01-10T10:32:03;97689.53;;;6.29
19102;BMP280;9683;49.028;12.064;2023-01-10T10:34:37;97690.06;;;6.39
19102;BMP280;9683;49.028;12.064;2023-01-10T10:37:11;97700.09;;;6.43
19102;BMP280;9683;49.028;12.064;2023-01-10T10:39:43;97706.09;;;6.52
19102;BMP280;9683;49.028;12.064;2023-01-10T10:42:13;97708.16;;;6.57
19102;BMP280;9683;49.028;12.064;2023-01-10T10:44:45;97714.97;;;6.66
19102;BMP280;9683;49.028;12.064;2023-01-10T10:47:15;97723.34;;;6.69
19102;BMP280;9683;49.028;12.064;2023-01-10T10:49:45;97709.50;;;6.67
19102;BMP280;9683;49.028;12.064;2023-01-10T10:52:21;97697.38;;;6.73
19102;BMP280;9683;49.028;12.064;2023-01-10T10:54:48;97704.66;;;6.71
19102;BMP280;9683;49.028;12.064;2023-01-10T10:57:15;97705.31;;;6.73
19102;BMP280;9683;49.028;12.064;2023-01-10T10:59:45;97705.47;;;6.71
19102;BMP280;9683;49.028;12.064;2023-01-10T11:02:21;97714.06;;;6.73
19102;BMP280;9683;49.028;12.064;2023-01-10T11:04:48;97697.38;;;6.73
19102;BMP280;9683;49.028;12.064;2023-01-10T11:07:18;97694.53;;;6.74
19102;BMP280;9683;49.028;12.064;2023-01-10T11:09:46;97698.25;;;6.80
19102;BMP280;9683;49.028;12.064;2023-01-10T11:12:17;97699.34;;;6.85
19102;BMP280;9683;49.028;12.064;2023-01-10T11:14:46;97695.50;;;6.88
19102;BMP280;9683;49.028;12.064;2023-01-10T11:17:18;97682.44;;;6.86
19102;BMP280;9683;49.028;12.064;2023-01-10T11:19:54;97686.34;;;6.90
19102;BMP280;9683;49.028;12.064;2023-01-10T11:22:23;97707.97;;;6.94
19102;BMP280;9683;49.028;12.064;2023-01-10T11:24:52;97716.34;;;6.98
19102;BMP280;9683;49.028;12.064;2023-01-10T11:27:22;97737.41;;;6.91
19102;BMP280;9683;49.028;12.064;2023-01-10T11:29:51;97725.47;;;6.95
19102;BMP280;9683;49.028;12.064;2023-01-10T11:32:21;97760.09;;;7.00
19102;BMP280;9683;49.028;12.064;2023-01-10T11:34:50;97759.34;;;6.85
19102;BMP280;9683;49.028;12.064;2023-01-10T11:37:21;97742.69;;;6.91
19102;BMP280;9683;49.028;12.064;2023-01-10T11:40:12;97755.22;;;6.82
19102;BMP280;9683;49.028;12.064;2023-01-10T11:42:40;97756.69;;;6.85
19102;BMP280;9683;49.028;12.064;2023-01-10T11:45:21;97740.00;;;6.84
19102;BMP280;9683;49.028;12.064;2023-01-10T11:47:49;97734.31;;;6.87
19102;BMP280;9683;49.028;12.064;2023-01-10T11:50:20;97734.41;;;6.94
19102;BMP280;9683;49.028;12.064;2023-01-10T11:52:48;97731.13;;;6.92
19102;BMP280;9683;49.028;12.064;2023-01-10T11:55:19;97739.50;;;6.96
19102;BMP280;9683;49.028;12.064;2023-01-10T11:57:53;97743.78;;;6.97
19102;BMP280;9683;49.028;12.064;2023-01-10T12:00:22;97743.63;;;6.98
19102;BMP280;9683;49.028;12.064;2023-01-10T12:02:56;97740.97;;;6.98
19102;BMP280;9683;49.028;12.064;2023-01-10T12:05:23;97736.84;;;6.96
19102;BMP280;9683;49.028;12.064;2023-01-10T12:07:53;97748.06;;;6.98
19102;BMP280;9683;49.028;12.064;2023-01-10T12:10:22;97754.63;;;7.02
19102;BMP280;9683;49.028;12.064;2023-01-10T12:12:53;97760.97;;;7.07
19102;BMP280;9683;49.028;12.064;2023-01-10T12:15:24;97760.81;;;7.09
19102;BMP280;9683;49.028;12.064;2023-01-10T12:17:52;97762.06;;;7.13
19102;BMP280;9683;49.028;12.064;2023-01-10T12:20:20;97744.81;;;7.17
19102;BMP280;9683;49.028;12.064;2023-01-10T12:22:51;97746.72;;;7.23
19102;BMP280;9683;49.028;12.064;2023-01-10T12:25:26;97754.66;;;7.23
19102;BMP280;9683;49.028;12.064;2023-01-10T12:27:56;97752.81;;;7.23
19102;BMP280;9683;49.028;12.064;2023-01-10T12:30:37;97766.50;;;7.27
19102;BMP280;9683;49.028;12.064;2023-01-10T12:33:12;97749.78;;;7.26
19102;BMP280;9683;49.028;12.064;2023-01-10T12:35:41;97747.75;;;7.28
19102;BMP280;9683;49.028;12.064;2023-01-10T12:38:19;97746.75;;;7.29
19102;BMP280;9683;49.028;12.064;2023-01-10T12:41:07;97754.13;;;7.34
19102;BMP280;9683;49.028;12.064;2023-01-10T12:43:39;97759.44;;;7.34
19102;BMP280;9683;49.028;12.064;2023-01-10T12:46:31;97771.66;;;7.35
19102;BMP280;9683;49.028;12.064;2023-01-10T12:49:01;97769.97;;;7.27
19102;BMP280;9683;49.028;12.064;2023-01-10T12:51:30;97766.94;;;7.30
19102;BMP280;9683;49.028;12.064;2023-01-10T12:54:00;97762.91;;;7.34
19102;BMP280;9683;49.028;12.064;2023-01-10T12:56:31;97767.78;;;7.37
19102;BMP280;9683;49.028;12.064;2023-01-10T12:59:01;97776.19;;;7.41
19102;BMP280;9683;49.028;12.064;2023-01-10T13:01:31;97775.59;;;7.46
19102;BMP280;9683;49.028;12.064;2023-01-10T13:04:02;97779.16;;;7.53
19102;BMP280;9683;49.028;12.064;2023-01-10T13:06:32;97786.97;;;7.61
19102;BMP280;9683;49.028;12.064;2023-01-10T13:09:04;97781.47;;;7.62
19102;BMP280;9683;49.028;12.064;2023-01-10T13:11:37;97780.03;;;7.60
19102;BMP280;9683;49.028;12.064;2023-01-10T13:14:09;97780.03;;;7.60
19102;BMP280;9683;49.028;12.064;2023-01-10T13:16:44;97786.75;;;7.62
19102;BMP280;9683;49.028;12.064;2023-01-10T13:19:26;97789.63;;;7.61
19102;BMP280;9683;49.028;12.064;2023-01-10T13:22:20;97782.41;;;7.55
19102;BMP280;9683;49.028;12.064;2023-01-10T13:24:57;97782.81;;;7.52
19102;BMP280;9683;49.028;12.064;2023-01-10T13:27:29;97785.00;;;7.48
19102;BMP280;9683;49.028;12.064;2023-01-10T13:29:56;97782.53;;;7.47
19102;BMP280;9683;49.028;12.064;2023-01-10T13:32:24;97780.72;;;7.47
19102;BMP280;9683;49.028;12.064;2023-01-10T13:34:52;97785.44;;;7.52
19102;BMP280;9683;49.028;12.064;2023-01-10T13:37:22;97782.84;;;7.58
19102;BMP280;9683;49.028;12.064;2023-01-10T13:39:52;97792.81;;;7.56
19102;BMP280;9683;49.028;12.064;2023-01-10T13:42:27;97790.19;;;7.56
19102;BMP280;9683;49.028;12.064;2023-01-10T13:45:21;97791.19;;;7.55
19102;BMP280;9683;49.028;12.064;2023-01-10T13:48:02;97784.63;;;7.51
19102;BMP280;9683;49.028;12.064;2023-01-10T13:50:49;97774.69;;;7.53
19102;BMP280;9683;49.028;12.064;2023-01-10T13:53:51;97776.88;;;7.50
19102;BMP280;9683;49.028;12.064;2023-01-10T13:56:34;97797.88;;;7.51
19102;BMP280;9683;49.028;12.064;2023-01-10T13:59:04;97799.88;;;7.49
19102;BMP280;9683;49.028;12.064;2023-01-10T14:01:52;97807.94;;;7.41
19102;BMP280;9683;49.028;12.064;2023-01-10T14:04:39;97806.75;;;7.44
19102;BMP280;9683;49.028;12.064;2023-01-10T14:07:22;97795.16;;;7.45
19102;BMP280;9683;49.028;12.064;2023-01-10T14:09:50;97796.22;;;7.50
19102;BMP280;9683;49.028;12.064;2023-01-10T14:12:25;97795.41;;;7.50
19102;BMP280;9683;49.028;12.064;2023-01-10T14:14:56;97783.19;;;7.49
19102;BMP280;9683;49.028;12.064;2023-01-10T14:17:25;97787.09;;;7.53
19102;BMP280;9683;49.028;12.064;2023-01-10T14:20:14;97794.47;;;7.57
19102;BMP280;9683;49.028;12.064;2023-01-10T14:22:56;97797.56;;;7.61
19102;BMP280;9683;49.028;12.064;2023-01-10T14:25:25;97799.84;;;7.70
19102;BMP280;9683;49.028;12.064;2023-01-10T14:27:53;97800.50;;;7.72
19102;BMP280;9683;49.028;12.064;2023-01-10T14:30:25;97803.16;;;7.72
19102;BMP280;9683;49.028;12.064;2023-01-10T14:32:55;97792.94;;;7.69
19102;BMP280;9683;49.028;12.064;2023-01-10T14:35:25;97788.00;;;7.66
19102;BMP280;9683;49.028;12.064;2023-01-10T14:37:55;97800.38;;;7.59
19102;BMP280;9683;49.028;12.064;2023-01-10T14:40:28;97802.59;;;7.56
19102;BMP280;9683;49.028;12.064;2023-01-10T14:42:56;97808.19;;;7.46
19102;BMP280;9683;49.028;12.064;2023-01-10T14:45:37;97806.50;;;7.38
19102;BMP280;9683;49.028;12.064;2023-01-10T14:48:21;97812.88;;;7.44
19102;BMP280;9683;49.028;12.064;2023-01-10T14:50:49;97814.44;;;7.38